createdAt,value
2022-12-31T00:00:28.342Z,13.30
2022-12-31T00:03:03.591Z,13.30
2022-12-31T00:05:38.684Z,13.30
2022-12-31T00:08:13.544Z,13.40
2022-12-31T00:10:48.621Z,13.40
2022-12-31T00:13:23.566Z,13.40
2022-12-31T00:16:12.300Z,13.40
2022-12-31T00:18:51.599Z,13.30
2022-12-31T00:21:29.283Z,13.30
2022-12-31T00:24:05.913Z,13.30
2022-12-31T00:26:40.767Z,13.30
2022-12-31T00:29:15.675Z,13.40
2022-12-31T00:31:50.575Z,13.40
2022-12-31T00:34:25.460Z,13.40
2022-12-31T00:37:00.379Z,13.40
2022-12-31T00:39:35.249Z,13.40
2022-12-31T00:42:10.116Z,13.40
2022-12-31T00:44:45.005Z,13.40
2022-12-31T00:47:19.871Z,13.50
2022-12-31T00:49:54.819Z,13.50
2022-12-31T00:52:29.670Z,13.50
2022-12-31T00:55:05.129Z,13.50
2022-12-31T00:57:40.001Z,13.60
2022-12-31T01:00:16.075Z,13.60
2022-12-31T01:02:51.076Z,13.70
2022-12-31T01:05:26.033Z,13.70
2022-12-31T01:08:01.913Z,13.70
2022-12-31T01:10:55.203Z,13.90
2022-12-31T01:13:30.062Z,13.90
2022-12-31T01:16:11.125Z,13.80
2022-12-31T01:18:46.100Z,13.80
2022-12-31T01:21:21.897Z,13.80
2022-12-31T01:23:58.080Z,13.80
2022-12-31T01:26:32.985Z,13.90
2022-12-31T01:29:09.381Z,14.00
2022-12-31T01:31:44.262Z,14.10
2022-12-31T01:34:19.139Z,14.10
2022-12-31T01:36:54.036Z,14.10
2022-12-31T01:39:28.924Z,14.10
2022-12-31T01:42:03.939Z,14.00
2022-12-31T01:44:38.735Z,13.90
2022-12-31T01:47:19.562Z,13.90
2022-12-31T01:50:05.235Z,14.00
2022-12-31T01:52:50.130Z,14.00
2022-12-31T01:55:35.598Z,13.80
2022-12-31T01:58:20.451Z,13.90
2022-12-31T02:00:58.868Z,13.90
2022-12-31T02:03:34.249Z,13.80
2022-12-31T02:06:24.243Z,13.70
2022-12-31T02:08:59.262Z,13.70
2022-12-31T02:11:37.966Z,13.70
2022-12-31T02:14:18.363Z,13.80
2022-12-31T02:17:27.204Z,13.70
2022-12-31T02:20:31.048Z,13.70
2022-12-31T02:23:39.867Z,13.70
2022-12-31T02:26:36.368Z,13.80
2022-12-31T02:29:51.357Z,13.80
2022-12-31T02:32:37.148Z,13.80
2022-12-31T02:36:05.167Z,13.80
2022-12-31T02:38:45.460Z,13.90
2022-12-31T02:41:39.103Z,13.90
2022-12-31T02:44:33.652Z,14.00
2022-12-31T02:47:08.525Z,14.10
2022-12-31T02:50:18.467Z,14.10
2022-12-31T02:53:19.636Z,14.00
2022-12-31T02:56:34.279Z,14.00
2022-12-31T02:59:41.162Z,13.90
2022-12-31T03:02:19.650Z,13.90
2022-12-31T03:04:57.404Z,13.80
2022-12-31T03:07:33.080Z,13.90
2022-12-31T03:10:09.186Z,13.90
2022-12-31T03:12:47.827Z,13.90
2022-12-31T03:15:30.121Z,14.00
2022-12-31T03:18:15.334Z,13.90
2022-12-31T03:21:10.212Z,13.90
2022-12-31T03:24:03.973Z,14.00
2022-12-31T03:26:38.876Z,14.00
2022-12-31T03:29:13.742Z,14.00
2022-12-31T03:31:48.659Z,14.00
2022-12-31T03:34:23.593Z,14.10
2022-12-31T03:36:58.459Z,14.20
2022-12-31T03:39:33.361Z,14.30
2022-12-31T03:42:08.242Z,14.30
2022-12-31T03:44:43.605Z,14.40
2022-12-31T03:47:18.483Z,14.40
2022-12-31T03:49:53.351Z,14.40
2022-12-31T03:52:28.484Z,14.50
2022-12-31T03:55:04.073Z,14.60
2022-12-31T03:57:39.716Z,14.60
2022-12-31T04:00:21.289Z,14.70
2022-12-31T04:02:56.434Z,14.70
2022-12-31T04:05:32.320Z,14.80
2022-12-31T04:08:07.237Z,14.80
2022-12-31T04:10:42.147Z,14.90
2022-12-31T04:13:17.020Z,14.90
2022-12-31T04:15:52.089Z,15.10
2022-12-31T04:18:27.039Z,15.00
2022-12-31T04:21:04.244Z,15.00
2022-12-31T04:23:39.168Z,15.10
2022-12-31T04:26:14.059Z,15.20
2022-12-31T04:28:48.977Z,15.10
2022-12-31T04:31:24.026Z,15.00
2022-12-31T04:33:58.921Z,15.10
2022-12-31T04:36:33.918Z,15.30
2022-12-31T04:39:08.814Z,15.20
2022-12-31T04:41:43.779Z,15.20
2022-12-31T04:44:19.157Z,15.20
2022-12-31T04:46:54.024Z,15.20
2022-12-31T04:49:29.034Z,15.10
2022-12-31T04:52:03.908Z,15.20
2022-12-31T04:54:38.781Z,15.20
2022-12-31T04:57:13.683Z,15.20
2022-12-31T04:59:48.530Z,15.30
2022-12-31T05:02:23.545Z,15.30
2022-12-31T05:04:58.652Z,15.30
2022-12-31T05:07:33.522Z,15.40
2022-12-31T05:10:09.181Z,15.30
2022-12-31T05:12:44.056Z,15.30
2022-12-31T05:15:18.942Z,15.20
2022-12-31T05:17:54.350Z,15.20
2022-12-31T05:20:29.679Z,15.30
2022-12-31T05:23:04.630Z,15.20
2022-12-31T05:25:39.915Z,15.20
2022-12-31T05:28:15.810Z,15.20
2022-12-31T05:30:51.520Z,15.20
2022-12-31T05:33:26.440Z,15.10
2022-12-31T05:36:01.405Z,15.10
2022-12-31T05:38:37.933Z,15.20
2022-12-31T05:41:12.832Z,15.20
2022-12-31T05:43:47.705Z,15.10
2022-12-31T05:46:22.763Z,15.20
2022-12-31T05:48:57.627Z,15.30
2022-12-31T05:51:32.514Z,15.30
2022-12-31T05:54:07.420Z,15.40
2022-12-31T05:56:42.323Z,15.40
2022-12-31T05:59:17.298Z,15.40
2022-12-31T06:01:52.244Z,15.40
2022-12-31T06:04:27.141Z,15.40
2022-12-31T06:07:02.030Z,15.40
2022-12-31T06:09:37.186Z,15.40
2022-12-31T06:12:13.784Z,15.50
2022-12-31T06:14:48.778Z,15.40
2022-12-31T06:17:24.572Z,15.50
2022-12-31T06:19:59.916Z,15.50
2022-12-31T06:22:34.849Z,15.50
2022-12-31T06:25:12.380Z,15.60
2022-12-31T06:27:47.382Z,15.50
2022-12-31T06:30:22.398Z,15.50
2022-12-31T06:32:57.265Z,15.40
2022-12-31T06:35:32.139Z,15.40
2022-12-31T06:38:07.047Z,15.40
2022-12-31T06:40:41.973Z,15.40
2022-12-31T06:43:17.309Z,15.40
2022-12-31T06:45:52.268Z,15.40
2022-12-31T06:48:27.212Z,15.50
2022-12-31T06:51:13.444Z,15.40
2022-12-31T06:53:52.162Z,15.40
2022-12-31T06:56:34.070Z,15.40
2022-12-31T06:59:26.719Z,15.40
2022-12-31T07:02:17.538Z,15.40
2022-12-31T07:05:02.574Z,15.40
2022-12-31T07:08:19.187Z,15.40
2022-12-31T07:11:25.258Z,15.40
2022-12-31T07:14:09.290Z,15.30
2022-12-31T07:17:28.583Z,15.50
2022-12-31T07:20:10.694Z,15.50
2022-12-31T07:22:46.896Z,15.40
2022-12-31T07:25:23.502Z,15.40
2022-12-31T07:28:38.074Z,15.50
2022-12-31T07:31:23.172Z,15.40
2022-12-31T07:34:26.954Z,15.50
2022-12-31T07:37:28.711Z,15.60
2022-12-31T07:40:57.828Z,15.70
2022-12-31T07:44:23.226Z,15.70
2022-12-31T07:47:01.368Z,15.70
2022-12-31T07:49:41.426Z,15.70
2022-12-31T07:52:17.126Z,15.80
2022-12-31T07:54:52.261Z,15.90
2022-12-31T07:57:36.867Z,15.80
2022-12-31T08:00:15.198Z,15.80
2022-12-31T08:03:22.685Z,15.90
2022-12-31T08:06:15.374Z,16.00
2022-12-31T08:09:03.408Z,16.00
2022-12-31T08:11:56.469Z,16.00
2022-12-31T08:14:43.621Z,16.00
2022-12-31T08:17:19.851Z,16.20
2022-12-31T08:19:55.168Z,16.10
2022-12-31T08:23:21.374Z,16.20
2022-12-31T08:26:53.203Z,16.20
2022-12-31T08:29:50.110Z,16.30
2022-12-31T08:32:41.795Z,16.40
2022-12-31T08:35:55.954Z,16.40
2022-12-31T08:39:01.571Z,16.50
2022-12-31T08:41:48.214Z,16.50
2022-12-31T08:44:43.317Z,16.50
2022-12-31T08:48:23.720Z,16.50
2022-12-31T08:50:59.193Z,16.60
2022-12-31T08:53:35.075Z,16.50
2022-12-31T08:56:32.142Z,16.60
2022-12-31T08:59:37.379Z,16.60
2022-12-31T09:02:27.117Z,16.60
2022-12-31T09:05:23.517Z,16.70
2022-12-31T09:08:23.327Z,16.80
2022-12-31T09:11:20.824Z,16.80
2022-12-31T09:14:19.666Z,16.90
2022-12-31T09:17:28.411Z,16.90
2022-12-31T09:20:04.706Z,16.80
2022-12-31T09:22:39.694Z,16.90
2022-12-31T09:25:17.535Z,16.90
2022-12-31T09:28:10.235Z,16.90
2022-12-31T09:31:15.415Z,16.90
2022-12-31T09:34:17.086Z,17.00
2022-12-31T09:37:03.879Z,17.00
2022-12-31T09:39:45.530Z,17.10
2022-12-31T09:43:06.523Z,17.20
2022-12-31T09:45:55.468Z,17.20
2022-12-31T09:49:01.061Z,17.20
2022-12-31T09:52:16.539Z,17.30
2022-12-31T09:55:12.566Z,17.20
2022-12-31T09:57:56.139Z,17.30
2022-12-31T10:00:41.701Z,17.60
2022-12-31T10:04:00.921Z,17.60
2022-12-31T10:07:09.905Z,17.60
2022-12-31T10:10:26.201Z,17.70
2022-12-31T10:13:33.031Z,17.80
2022-12-31T10:16:53.772Z,18.00
2022-12-31T10:20:02.854Z,17.80
2022-12-31T10:23:34.091Z,17.90
2022-12-31T10:26:37.906Z,18.00
2022-12-31T10:29:37.308Z,17.90
2022-12-31T10:32:40.280Z,17.80
2022-12-31T10:35:31.226Z,18.00
2022-12-31T10:39:08.892Z,17.90
2022-12-31T10:42:09.995Z,18.10
2022-12-31T10:45:22.686Z,18.30
2022-12-31T10:48:38.271Z,18.30
2022-12-31T10:51:54.603Z,18.40
2022-12-31T10:55:19.435Z,18.80
2022-12-31T10:58:26.314Z,19.00
2022-12-31T11:01:33.072Z,19.50
2022-12-31T11:04:32.259Z,19.80
2022-12-31T11:08:02.558Z,20.00
2022-12-31T11:11:08.059Z,20.20
2022-12-31T11:14:37.825Z,20.60
2022-12-31T11:17:47.721Z,20.60
2022-12-31T11:20:50.317Z,20.70
2022-12-31T11:23:53.425Z,20.80
2022-12-31T11:27:07.512Z,20.60
2022-12-31T11:30:04.468Z,20.70
2022-12-31T11:33:03.654Z,20.70
2022-12-31T11:36:05.366Z,20.70
2022-12-31T11:38:52.859Z,20.50
2022-12-31T11:41:49.745Z,20.50
2022-12-31T11:44:45.001Z,20.50
2022-12-31T11:48:28.017Z,20.40
2022-12-31T11:51:15.697Z,20.40
2022-12-31T11:54:36.379Z,20.70
2022-12-31T11:57:36.011Z,20.60
2022-12-31T12:00:22.602Z,20.60
2022-12-31T12:03:05.234Z,20.60
2022-12-31T12:05:40.601Z,20.60
2022-12-31T12:08:16.727Z,20.50
2022-12-31T12:11:08.800Z,20.40
2022-12-31T12:13:43.837Z,20.60
2022-12-31T12:16:22.354Z,20.80
2022-12-31T12:19:07.255Z,20.60
2022-12-31T12:21:49.503Z,20.60
2022-12-31T12:24:29.576Z,20.60
2022-12-31T12:27:04.997Z,21.00
2022-12-31T12:29:40.170Z,21.10
2022-12-31T12:32:27.274Z,21.10
2022-12-31T12:35:15.199Z,20.90
2022-12-31T12:38:04.694Z,20.90
2022-12-31T12:40:40.642Z,20.80
2022-12-31T12:43:24.810Z,20.80
2022-12-31T12:46:05.272Z,20.60
2022-12-31T12:48:43.545Z,20.60
2022-12-31T12:52:05.798Z,20.70
2022-12-31T12:55:02.324Z,20.70
2022-12-31T12:58:06.833Z,20.60
2022-12-31T13:01:03.687Z,20.50
2022-12-31T13:04:53.782Z,20.50
2022-12-31T13:07:51.572Z,20.60
2022-12-31T13:10:43.222Z,20.40
2022-12-31T13:13:31.282Z,20.30
2022-12-31T13:16:22.539Z,20.10
2022-12-31T13:19:27.972Z,20.20
2022-12-31T13:22:31.791Z,20.20
2022-12-31T13:25:24.388Z,20.20
2022-12-31T13:28:04.323Z,20.40
2022-12-31T13:30:48.551Z,20.30
2022-12-31T13:33:28.611Z,20.30
2022-12-31T13:36:09.163Z,20.20
2022-12-31T13:38:49.446Z,20.20
2022-12-31T13:41:43.707Z,20.20
2022-12-31T13:44:35.475Z,20.20
2022-12-31T13:47:32.887Z,20.00
2022-12-31T13:50:46.484Z,20.10
2022-12-31T13:53:46.585Z,20.00
2022-12-31T13:56:34.319Z,20.00
2022-12-31T13:59:35.372Z,20.00
2022-12-31T14:02:52.033Z,20.00
2022-12-31T14:05:38.561Z,20.00
2022-12-31T14:08:13.499Z,20.10
2022-12-31T14:11:18.498Z,20.00
2022-12-31T14:14:20.230Z,19.80
2022-12-31T14:17:06.542Z,19.80
2022-12-31T14:20:11.543Z,19.70
2022-12-31T14:23:34.376Z,19.80
2022-12-31T14:26:27.386Z,19.60
2022-12-31T14:29:28.962Z,19.70
2022-12-31T14:32:37.112Z,19.70
2022-12-31T14:35:43.642Z,19.60
2022-12-31T14:38:21.107Z,19.50
2022-12-31T14:41:40.186Z,19.60
2022-12-31T14:44:29.925Z,19.50
2022-12-31T14:47:28.616Z,19.40
2022-12-31T14:50:13.401Z,19.40
2022-12-31T14:53:32.665Z,19.30
2022-12-31T14:56:51.282Z,19.30
2022-12-31T14:59:35.661Z,19.40
2022-12-31T15:02:34.547Z,19.20
2022-12-31T15:05:12.546Z,19.20
2022-12-31T15:07:47.366Z,19.10
2022-12-31T15:10:58.691Z,19.00
2022-12-31T15:14:24.561Z,18.90
2022-12-31T15:17:15.391Z,18.80
2022-12-31T15:20:17.417Z,18.80
2022-12-31T15:22:53.853Z,18.70
2022-12-31T15:25:41.183Z,18.60
2022-12-31T15:28:36.900Z,18.50
2022-12-31T15:31:19.132Z,18.40
2022-12-31T15:34:03.365Z,18.30
2022-12-31T15:36:53.084Z,18.30
2022-12-31T15:39:41.686Z,18.20
2022-12-31T15:42:42.380Z,18.20
2022-12-31T15:45:27.487Z,18.10
2022-12-31T15:48:15.685Z,18.00
2022-12-31T15:50:57.212Z,18.00
2022-12-31T15:53:56.683Z,18.00
2022-12-31T15:56:45.257Z,17.90
2022-12-31T15:59:22.251Z,17.80
2022-12-31T16:01:57.694Z,17.70
2022-12-31T16:04:33.613Z,17.70
2022-12-31T16:07:11.512Z,17.70
2022-12-31T16:09:56.358Z,17.70
2022-12-31T16:12:44.129Z,17.60
2022-12-31T16:15:30.382Z,17.60
2022-12-31T16:18:20.760Z,17.60
2022-12-31T16:20:57.799Z,17.50
2022-12-31T16:23:36.183Z,17.50
2022-12-31T16:26:13.710Z,17.50
2022-12-31T16:28:49.435Z,17.50
2022-12-31T16:31:24.360Z,17.50
2022-12-31T16:34:13.191Z,17.40
2022-12-31T16:36:59.777Z,17.40
2022-12-31T16:39:38.368Z,17.40
2022-12-31T16:42:23.314Z,17.40
2022-12-31T16:45:33.676Z,17.40
2022-12-31T16:48:17.197Z,17.30
2022-12-31T16:50:55.851Z,17.30
2022-12-31T16:53:36.205Z,17.20
2022-12-31T16:56:11.112Z,17.20
2022-12-31T16:58:46.223Z,17.10
2022-12-31T17:01:25.814Z,17.10
2022-12-31T17:04:08.030Z,17.10
2022-12-31T17:06:44.025Z,17.10
2022-12-31T17:09:34.208Z,17.10
2022-12-31T17:12:16.631Z,17.10
2022-12-31T17:14:51.934Z,17.00
2022-12-31T17:17:29.923Z,17.00
2022-12-31T17:20:11.593Z,17.00
2022-12-31T17:22:46.526Z,17.00
2022-12-31T17:25:28.898Z,17.00
2022-12-31T17:28:25.594Z,16.90
2022-12-31T17:31:02.462Z,16.90
2022-12-31T17:33:37.398Z,16.80
2022-12-31T17:36:23.389Z,16.80
2022-12-31T17:39:25.550Z,16.80
2022-12-31T17:42:01.910Z,16.70
2022-12-31T17:44:41.141Z,16.70
2022-12-31T17:47:16.052Z,16.60
2022-12-31T17:49:53.526Z,16.60
2022-12-31T17:52:28.480Z,16.60
2022-12-31T17:55:03.664Z,16.50
2022-12-31T17:57:50.869Z,16.50
2022-12-31T18:00:27.239Z,16.50
2022-12-31T18:03:02.673Z,16.50
2022-12-31T18:05:37.682Z,16.50
2022-12-31T18:08:12.594Z,16.50
2022-12-31T18:10:47.799Z,16.50
2022-12-31T18:13:27.429Z,16.40
2022-12-31T18:16:02.477Z,16.40
2022-12-31T18:18:39.993Z,16.30
2022-12-31T18:21:27.499Z,16.30
2022-12-31T18:26:37.864Z,16.30
2022-12-31T18:29:19.456Z,16.30
2022-12-31T18:31:54.450Z,16.30
2022-12-31T18:34:29.455Z,16.30
2022-12-31T18:37:17.915Z,16.20
2022-12-31T18:39:56.264Z,16.20
2022-12-31T18:42:31.186Z,16.20
2022-12-31T18:45:17.871Z,16.10
2022-12-31T18:47:52.853Z,16.10
2022-12-31T18:50:28.162Z,16.10
2022-12-31T18:53:03.459Z,16.10
2022-12-31T18:55:42.877Z,16.10
2022-12-31T18:58:19.434Z,16.10
2022-12-31T19:00:54.821Z,16.10
2022-12-31T19:03:30.567Z,16.20
2022-12-31T19:06:05.727Z,16.10
2022-12-31T19:08:40.597Z,16.10
2022-12-31T19:11:16.257Z,16.10
2022-12-31T19:13:51.143Z,16.10
2022-12-31T19:16:26.146Z,16.10
2022-12-31T19:19:06.782Z,16.10
2022-12-31T19:21:44.160Z,16.10
2022-12-31T19:24:23.134Z,16.10
2022-12-31T19:26:58.118Z,16.10
2022-12-31T19:29:33.095Z,16.00
2022-12-31T19:32:08.037Z,16.00
2022-12-31T19:34:42.938Z,15.90
2022-12-31T19:37:17.847Z,15.90
2022-12-31T19:39:52.752Z,15.90
2022-12-31T19:42:27.620Z,15.90
2022-12-31T19:45:02.620Z,15.90
2022-12-31T19:47:37.518Z,15.90
2022-12-31T19:50:16.057Z,15.90
2022-12-31T19:52:55.235Z,15.90
2022-12-31T19:55:30.091Z,15.90
2022-12-31T19:58:04.999Z,15.80
2022-12-31T20:00:39.883Z,15.80
2022-12-31T20:03:15.486Z,15.80
2022-12-31T20:05:51.015Z,15.90
2022-12-31T20:08:25.959Z,15.80
2022-12-31T20:11:15.546Z,15.90
2022-12-31T20:13:53.600Z,15.90
2022-12-31T20:16:31.616Z,15.90
2022-12-31T20:19:06.779Z,15.90
2022-12-31T20:21:41.965Z,15.90
2022-12-31T20:24:16.975Z,15.90
2022-12-31T20:26:51.914Z,15.90
2022-12-31T20:29:26.831Z,15.90
2022-12-31T20:32:02.326Z,15.90
2022-12-31T20:34:37.220Z,15.90
2022-12-31T20:37:12.144Z,15.90
2022-12-31T20:39:47.074Z,15.90
2022-12-31T20:42:21.963Z,15.90
2022-12-31T20:44:56.836Z,15.80
2022-12-31T20:47:31.816Z,15.80
2022-12-31T20:50:11.885Z,15.80
2022-12-31T20:52:47.287Z,15.80
2022-12-31T20:55:22.205Z,15.70
2022-12-31T20:57:57.071Z,15.70
2022-12-31T21:00:32.075Z,15.70
2022-12-31T21:03:23.746Z,15.70
2022-12-31T21:06:02.507Z,15.60
2022-12-31T21:08:38.963Z,15.60
2022-12-31T21:11:33.161Z,15.60
2022-12-31T21:14:08.391Z,15.50
2022-12-31T21:16:43.475Z,15.60
2022-12-31T21:19:18.442Z,15.50
2022-12-31T21:21:53.380Z,15.50
2022-12-31T21:24:28.266Z,15.50
2022-12-31T21:27:03.289Z,15.40
2022-12-31T21:30:01.656Z,15.40
2022-12-31T21:32:33.013Z,15.30
2022-12-31T21:35:41.129Z,15.30
2022-12-31T21:38:06.034Z,15.20
2022-12-31T21:40:40.913Z,15.20
2022-12-31T21:43:16.278Z,15.20
2022-12-31T21:46:04.613Z,15.10
2022-12-31T21:48:39.540Z,15.10
2022-12-31T21:51:16.692Z,15.10
2022-12-31T21:53:51.794Z,15.00
2022-12-31T21:56:26.725Z,15.00
2022-12-31T21:59:20.055Z,15.10
2022-12-31T22:02:13.805Z,15.00
2022-12-31T22:05:09.085Z,15.00
2022-12-31T22:07:43.584Z,15.00
2022-12-31T22:10:18.464Z,15.00
2022-12-31T22:12:53.400Z,15.00
2022-12-31T22:15:28.395Z,15.10
2022-12-31T22:18:03.663Z,15.00
2022-12-31T22:20:38.860Z,15.00
2022-12-31T22:23:13.896Z,15.00
2022-12-31T22:25:48.961Z,14.90
2022-12-31T22:28:40.184Z,15.00
2022-12-31T22:31:22.762Z,14.90
2022-12-31T22:33:58.695Z,14.90
2022-12-31T22:36:33.589Z,14.90
2022-12-31T22:39:43.471Z,14.90
2022-12-31T22:42:10.315Z,14.90
2022-12-31T22:44:45.215Z,14.80
2022-12-31T22:47:20.078Z,14.80
2022-12-31T22:49:54.937Z,14.70
2022-12-31T22:52:29.808Z,14.70
2022-12-31T22:55:05.521Z,14.60
2022-12-31T22:57:40.439Z,14.60
2022-12-31T23:00:15.681Z,14.50
2022-12-31T23:02:50.557Z,14.50
2022-12-31T23:05:25.462Z,14.40
2022-12-31T23:08:06.100Z,14.40
2022-12-31T23:11:00.235Z,14.40
2022-12-31T23:14:01.559Z,14.30
2022-12-31T23:16:55.054Z,14.30
2022-12-31T23:19:48.303Z,14.20
2022-12-31T23:22:41.917Z,14.30
2022-12-31T23:25:16.870Z,14.20
2022-12-31T23:27:51.752Z,14.20
2022-12-31T23:30:26.803Z,14.20
2022-12-31T23:33:01.789Z,14.20
2022-12-31T23:35:36.661Z,14.10
2022-12-31T23:38:12.108Z,14.10
2022-12-31T23:40:47.022Z,14.20
2022-12-31T23:43:22.718Z,14.20
2022-12-31T23:45:57.590Z,14.20
2022-12-31T23:48:32.483Z,14.20
2022-12-31T23:51:07.358Z,14.20
2022-12-31T23:53:42.258Z,14.20
2022-12-31T23:56:23.740Z,14.30
2022-12-31T23:59:00.090Z,14.20
